sensor_id;sensor_type;location;lat;lon;timestamp;pressure;altitude;pressure_sealevel;temperature;humidity
15308;BME280;7755;52.208;6.964;2023-04-25T00:01:06;100507.00;;;7.67;100.00
15308;BME280;7755;52.208;6.964;2023-04-25T00:05:10;100510.75;;;7.66;100.00
15308;BME280;7755;52.208;6.964;2023-04-25T00:09:13;100518.13;;;7.59;100.00
15308;BME280;7755;52.208;6.964;2023-04-25T00:13:16;100518.19;;;7.52;100.00
15308;BME280;7755;52.208;6.964;2023-04-25T00:17:22;100525.09;;;7.48;100.00
15308;BME280;7755;52.208;6.964;2023-04-25T00:21:26;100523.22;;;7.49;100.00
15308;BME280;7755;52.208;6.964;2023-04-25T00:25:29;100536.38;;;7.45;100.00
15308;BME280;7755;52.208;6.964;2023-04-25T00:29:33;100540.09;;;7.44;100.00
15308;BME280;7755;52.208;6.964;2023-04-25T00:33:37;100544.31;;;7.40;100.00
15308;BME280;7755;52.208;6.964;2023-04-25T00:37:40;100552.03;;;7.36;100.00
15308;BME280;7755;52.208;6.964;2023-04-25T00:41:44;100550.97;;;7.37;100.00
15308;BME280;7755;52.208;6.964;2023-04-25T00:45:47;100548.50;;;7.36;100.00
15308;BME280;7755;52.208;6.964;2023-04-25T00:49:52;100543.94;;;7.36;100.00
15308;BME280;7755;52.208;6.964;2023-04-25T00:53:55;100549.78;;;7.33;100.00
15308;BME280;7755;52.208;6.964;2023-04-25T00:57:58;100551.44;;;7.34;100.00
15308;BME280;7755;52.208;6.964;2023-04-25T01:02:02;100550.78;;;7.39;100.00
15308;BME280;7755;52.208;6.964;2023-04-25T01:06:07;100542.50;;;7.34;100.00
15308;BME280;7755;52.208;6.964;2023-04-25T01:10:11;100559.97;;;7.31;100.00
15308;BME280;7755;52.208;6.964;2023-04-25T01:14:13;100574.19;;;7.27;100.00
15308;BME280;7755;52.208;6.964;2023-04-25T01:18:16;100562.16;;;7.23;100.00
15308;BME280;7755;52.208;6.964;2023-04-25T01:22:20;100558.63;;;7.22;100.00
15308;BME280;7755;52.208;6.964;2023-04-25T01:26:25;100549.91;;;7.20;100.00
15308;BME280;7755;52.208;6.964;2023-04-25T01:30:29;100568.78;;;7.27;100.00
15308;BME280;7755;52.208;6.964;2023-04-25T01:34:32;100567.28;;;7.31;100.00
15308;BME280;7755;52.208;6.964;2023-04-25T01:38:36;100579.78;;;7.32;100.00
15308;BME280;7755;52.208;6.964;2023-04-25T01:42:42;100576.22;;;7.31;100.00
15308;BME280;7755;52.208;6.964;2023-04-25T01:46:46;100569.63;;;7.27;100.00
15308;BME280;7755;52.208;6.964;2023-04-25T01:50:49;100567.13;;;7.26;100.00
15308;BME280;7755;52.208;6.964;2023-04-25T01:54:53;100568.69;;;7.15;100.00
15308;BME280;7755;52.208;6.964;2023-04-25T01:58:57;100577.28;;;7.05;100.00
15308;BME280;7755;52.208;6.964;2023-04-25T02:03:36;100580.41;;;7.02;100.00
15308;BME280;7755;52.208;6.964;2023-04-25T02:07:44;100586.88;;;7.01;100.00
15308;BME280;7755;52.208;6.964;2023-04-25T02:11:48;100583.59;;;6.99;100.00
15308;BME280;7755;52.208;6.964;2023-04-25T02:16:30;100586.28;;;6.99;100.00
15308;BME280;7755;52.208;6.964;2023-04-25T02:20:35;100591.06;;;6.97;100.00
15308;BME280;7755;52.208;6.964;2023-04-25T02:24:39;100604.16;;;7.00;100.00
15308;BME280;7755;52.208;6.964;2023-04-25T02:28:43;100607.09;;;6.99;100.00
15308;BME280;7755;52.208;6.964;2023-04-25T02:32:47;100611.44;;;7.00;100.00
15308;BME280;7755;52.208;6.964;2023-04-25T02:36:49;100622.84;;;7.02;100.00
15308;BME280;7755;52.208;6.964;2023-04-25T02:40:53;100613.13;;;6.94;100.00
15308;BME280;7755;52.208;6.964;2023-04-25T02:44:57;100618.13;;;6.91;100.00
15308;BME280;7755;52.208;6.964;2023-04-25T02:49:00;100621.28;;;6.88;100.00
15308;BME280;7755;52.208;6.964;2023-04-25T02:53:04;100628.16;;;6.83;100.00
15308;BME280;7755;52.208;6.964;2023-04-25T02:57:13;100629.22;;;6.82;100.00
15308;BME280;7755;52.208;6.964;2023-04-25T03:01:17;100644.38;;;6.83;100.00
15308;BME280;7755;52.208;6.964;2023-04-25T03:05:20;100635.25;;;6.84;100.00
15308;BME280;7755;52.208;6.964;2023-04-25T03:09:23;100638.19;;;6.76;100.00
15308;BME280;7755;52.208;6.964;2023-04-25T03:13:27;100645.13;;;6.66;100.00
15308;BME280;7755;52.208;6.964;2023-04-25T03:17:33;100648.03;;;6.64;100.00
15308;BME280;7755;52.208;6.964;2023-04-25T03:21:37;100643.06;;;6.61;100.00
15308;BME280;7755;52.208;6.964;2023-04-25T03:25:40;100646.56;;;6.68;100.00
15308;BME280;7755;52.208;6.964;2023-04-25T03:29:42;100651.75;;;6.63;100.00
15308;BME280;7755;52.208;6.964;2023-04-25T03:33:47;100651.81;;;6.56;100.00
15308;BME280;7755;52.208;6.964;2023-04-25T03:37:51;100648.28;;;6.56;100.00
15308;BME280;7755;52.208;6.964;2023-04-25T03:42:00;100657.66;;;6.53;100.00
15308;BME280;7755;52.208;6.964;2023-04-25T03:46:03;100652.44;;;6.59;100.00
15308;BME280;7755;52.208;6.964;2023-04-25T03:50:08;100653.88;;;6.61;100.00
15308;BME280;7755;52.208;6.964;2023-04-25T03:54:11;100658.66;;;6.59;100.00
15308;BME280;7755;52.208;6.964;2023-04-25T03:58:14;100665.50;;;6.62;100.00
15308;BME280;7755;52.208;6.964;2023-04-25T04:02:17;100662.78;;;6.62;100.00
15308;BME280;7755;52.208;6.964;2023-04-25T04:06:22;100667.16;;;6.63;100.00
15308;BME280;7755;52.208;6.964;2023-04-25T04:10:32;100673.19;;;6.65;100.00
15308;BME280;7755;52.208;6.964;2023-04-25T04:14:34;100681.69;;;6.62;100.00
15308;BME280;7755;52.208;6.964;2023-04-25T04:18:39;100678.81;;;6.56;100.00
15308;BME280;7755;52.208;6.964;2023-04-25T04:22:44;100676.31;;;6.55;100.00
15308;BME280;7755;52.208;6.964;2023-04-25T04:26:50;100677.00;;;6.50;100.00
15308;BME280;7755;52.208;6.964;2023-04-25T04:31:22;100685.50;;;6.47;100.00
15308;BME280;7755;52.208;6.964;2023-04-25T04:35:55;100690.88;;;6.54;100.00
15308;BME280;7755;52.208;6.964;2023-04-25T04:40:17;100695.91;;;6.50;100.00
15308;BME280;7755;52.208;6.964;2023-04-25T04:44:44;100697.09;;;6.54;100.00
15308;BME280;7755;52.208;6.964;2023-04-25T04:49:27;100706.69;;;6.50;100.00
15308;BME280;7755;52.208;6.964;2023-04-25T04:53:59;100719.34;;;6.50;100.00
15308;BME280;7755;52.208;6.964;2023-04-25T04:58:30;100715.59;;;6.57;100.00
15308;BME280;7755;52.208;6.964;2023-04-25T05:02:42;100719.53;;;6.55;100.00
15308;BME280;7755;52.208;6.964;2023-04-25T05:06:58;100718.72;;;6.54;100.00
15308;BME280;7755;52.208;6.964;2023-04-25T05:11:19;100727.25;;;6.58;100.00
15308;BME280;7755;52.208;6.964;2023-04-25T05:15:41;100723.72;;;6.57;100.00
15308;BME280;7755;52.208;6.964;2023-04-25T05:20:07;100735.50;;;6.63;100.00
15308;BME280;7755;52.208;6.964;2023-04-25T05:24:37;100753.56;;;6.69;100.00
15308;BME280;7755;52.208;6.964;2023-04-25T05:28:59;100755.03;;;6.72;100.00
15308;BME280;7755;52.208;6.964;2023-04-25T05:33:19;100765.84;;;6.72;100.00
15308;BME280;7755;52.208;6.964;2023-04-25T05:37:22;100763.31;;;6.77;100.00
15308;BME280;7755;52.208;6.964;2023-04-25T05:41:37;100751.63;;;6.83;100.00
15308;BME280;7755;52.208;6.964;2023-04-25T05:45:58;100759.09;;;6.88;100.00
15308;BME280;7755;52.208;6.964;2023-04-25T05:50:15;100759.69;;;6.96;100.00
15308;BME280;7755;52.208;6.964;2023-04-25T05:54:25;100774.22;;;7.02;100.00
15308;BME280;7755;52.208;6.964;2023-04-25T05:58:30;100777.97;;;7.01;100.00
15308;BME280;7755;52.208;6.964;2023-04-25T06:02:34;100791.88;;;7.04;100.00
15308;BME280;7755;52.208;6.964;2023-04-25T06:06:39;100790.03;;;7.05;100.00
15308;BME280;7755;52.208;6.964;2023-04-25T06:10:42;100797.47;;;7.09;100.00
15308;BME280;7755;52.208;6.964;2023-04-25T06:15:00;100804.72;;;7.16;100.00
15308;BME280;7755;52.208;6.964;2023-04-25T06:19:08;100812.00;;;7.15;100.00
15308;BME280;7755;52.208;6.964;2023-04-25T06:23:12;100807.44;;;7.16;100.00
15308;BME280;7755;52.208;6.964;2023-04-25T06:27:25;100817.38;;;7.22;100.00
15308;BME280;7755;52.208;6.964;2023-04-25T06:31:28;100822.53;;;7.30;100.00
15308;BME280;7755;52.208;6.964;2023-04-25T06:35:35;100829.38;;;7.39;100.00
15308;BME280;7755;52.208;6.964;2023-04-25T06:39:40;100825.84;;;7.38;100.00
15308;BME280;7755;52.208;6.964;2023-04-25T06:43:45;100829.53;;;7.44;100.00
15308;BME280;7755;52.208;6.964;2023-04-25T06:48:11;100830.75;;;7.48;100.00
15308;BME280;7755;52.208;6.964;2023-04-25T06:52:14;100831.28;;;7.63;100.00
15308;BME280;7755;52.208;6.964;2023-04-25T06:56:19;100838.75;;;7.68;100.00
15308;BME280;7755;52.208;6.964;2023-04-25T07:00:46;100840.38;;;7.76;100.00
15308;BME280;7755;52.208;6.964;2023-04-25T07:04:51;100842.72;;;7.97;100.00
15308;BME280;7755;52.208;6.964;2023-04-25T07:08:59;100850.44;;;8.18;96.97
15308;BME280;7755;52.208;6.964;2023-04-25T07:13:05;100850.88;;;8.47;96.23
15308;BME280;7755;52.208;6.964;2023-04-25T07:17:08;100844.50;;;8.78;92.01
15308;BME280;7755;52.208;6.964;2023-04-25T07:21:11;100853.97;;;9.06;88.08
15308;BME280;7755;52.208;6.964;2023-04-25T07:25:17;100840.78;;;9.27;86.25
15308;BME280;7755;52.208;6.964;2023-04-25T07:29:22;100839.84;;;9.34;85.02
15308;BME280;7755;52.208;6.964;2023-04-25T07:33:26;100843.78;;;9.38;83.30
15308;BME280;7755;52.208;6.964;2023-04-25T07:37:30;100845.53;;;9.62;80.21
15308;BME280;7755;52.208;6.964;2023-04-25T07:41:42;100848.84;;;9.64;78.38
15308;BME280;7755;52.208;6.964;2023-04-25T07:45:53;100858.59;;;9.95;80.25
15308;BME280;7755;52.208;6.964;2023-04-25T07:49:57;100856.28;;;10.22;75.50
15308;BME280;7755;52.208;6.964;2023-04-25T07:54:01;100866.16;;;10.58;72.58
15308;BME280;7755;52.208;6.964;2023-04-25T07:58:15;100870.03;;;10.98;69.58
15308;BME280;7755;52.208;6.964;2023-04-25T08:02:38;100869.09;;;10.80;68.26
15308;BME280;7755;52.208;6.964;2023-04-25T08:06:50;100872.16;;;10.96;64.65
15308;BME280;7755;52.208;6.964;2023-04-25T08:11:03;100873.19;;;11.18;66.94
15308;BME280;7755;52.208;6.964;2023-04-25T08:15:07;100877.25;;;11.44;64.59
15308;BME280;7755;52.208;6.964;2023-04-25T08:19:15;100900.72;;;11.33;64.43
15308;BME280;7755;52.208;6.964;2023-04-25T08:23:20;100895.22;;;10.93;58.64
15308;BME280;7755;52.208;6.964;2023-04-25T08:27:29;100896.75;;;10.30;58.09
15308;BME280;7755;52.208;6.964;2023-04-25T08:31:32;100902.66;;;9.97;57.25
15308;BME280;7755;52.208;6.964;2023-04-25T08:35:39;100914.13;;;9.99;57.62
15308;BME280;7755;52.208;6.964;2023-04-25T08:39:42;100918.72;;;9.99;55.47
15308;BME280;7755;52.208;6.964;2023-04-25T08:43:51;100924.06;;;9.75;57.58
15308;BME280;7755;52.208;6.964;2023-04-25T08:47:57;100919.94;;;10.15;57.67
15308;BME280;7755;52.208;6.964;2023-04-25T08:52:04;100932.78;;;10.26;57.08
15308;BME280;7755;52.208;6.964;2023-04-25T08:56:15;100941.06;;;10.31;55.74
15308;BME280;7755;52.208;6.964;2023-04-25T09:00:30;100944.75;;;10.48;54.67
15308;BME280;7755;52.208;6.964;2023-04-25T09:04:53;100947.00;;;10.51;55.76
15308;BME280;7755;52.208;6.964;2023-04-25T09:09:11;100951.72;;;10.56;56.00
15308;BME280;7755;52.208;6.964;2023-04-25T09:13:24;100953.06;;;10.88;56.25
15308;BME280;7755;52.208;6.964;2023-04-25T09:17:55;100960.38;;;10.76;54.83
15308;BME280;7755;52.208;6.964;2023-04-25T09:22:02;100958.97;;;10.85;56.33
15308;BME280;7755;52.208;6.964;2023-04-25T09:26:07;100967.84;;;10.81;57.45
15308;BME280;7755;52.208;6.964;2023-04-25T09:30:14;100976.25;;;10.91;58.02
15308;BME280;7755;52.208;6.964;2023-04-25T09:34:44;100968.53;;;10.76;58.37
15308;BME280;7755;52.208;6.964;2023-04-25T09:39:05;100969.97;;;11.14;59.30
15308;BME280;7755;52.208;6.964;2023-04-25T09:43:56;100969.84;;;11.32;57.26
15308;BME280;7755;52.208;6.964;2023-04-25T09:48:04;100983.13;;;11.69;57.67
15308;BME280;7755;52.208;6.964;2023-04-25T09:52:28;100978.06;;;11.72;56.69
15308;BME280;7755;52.208;6.964;2023-04-25T09:56:53;100990.25;;;11.58;54.29
15308;BME280;7755;52.208;6.964;2023-04-25T10:01:00;101000.03;;;11.19;54.44
15308;BME280;7755;52.208;6.964;2023-04-25T10:05:13;101012.44;;;10.91;57.64
15308;BME280;7755;52.208;6.964;2023-04-25T10:09:16;101036.09;;;10.49;63.57
15308;BME280;7755;52.208;6.964;2023-04-25T10:13:22;101053.69;;;9.25;68.98
15308;BME280;7755;52.208;6.964;2023-04-25T10:17:27;101050.25;;;8.61;80.79
15308;BME280;7755;52.208;6.964;2023-04-25T10:21:31;101052.94;;;8.23;84.35
15308;BME280;7755;52.208;6.964;2023-04-25T10:25:37;101052.38;;;8.14;83.37
15308;BME280;7755;52.208;6.964;2023-04-25T10:29:40;101059.63;;;8.59;83.65
15308;BME280;7755;52.208;6.964;2023-04-25T10:33:46;101052.09;;;8.92;81.35
15308;BME280;7755;52.208;6.964;2023-04-25T10:38:04;101059.22;;;9.12;78.99
15308;BME280;7755;52.208;6.964;2023-04-25T10:42:07;101051.38;;;9.28;77.53
15308;BME280;7755;52.208;6.964;2023-04-25T10:46:18;101048.44;;;9.85;74.19
15308;BME280;7755;52.208;6.964;2023-04-25T10:50:37;101042.59;;;10.18;70.14
15308;BME280;7755;52.208;6.964;2023-04-25T10:54:42;101032.88;;;10.71;62.27
15308;BME280;7755;52.208;6.964;2023-04-25T10:58:46;101032.78;;;11.24;63.46
15308;BME280;7755;52.208;6.964;2023-04-25T11:02:57;101019.94;;;11.71;62.43
15308;BME280;7755;52.208;6.964;2023-04-25T11:07:09;101028.31;;;12.05;61.14
15308;BME280;7755;52.208;6.964;2023-04-25T11:11:14;101023.63;;;11.77;59.24
15308;BME280;7755;52.208;6.964;2023-04-25T11:15:17;101031.09;;;11.58;60.15
15308;BME280;7755;52.208;6.964;2023-04-25T11:19:20;101031.47;;;11.62;57.74
15308;BME280;7755;52.208;6.964;2023-04-25T11:23:25;101034.78;;;11.87;55.23
15308;BME280;7755;52.208;6.964;2023-04-25T11:27:28;101028.34;;;11.93;56.64
15308;BME280;7755;52.208;6.964;2023-04-25T11:31:31;101044.88;;;11.52;59.68
15308;BME280;7755;52.208;6.964;2023-04-25T11:35:34;101034.94;;;11.34;61.39
15308;BME280;7755;52.208;6.964;2023-04-25T11:39:38;101032.22;;;11.34;61.04
15308;BME280;7755;52.208;6.964;2023-04-25T11:43:42;101054.00;;;11.45;61.02
15308;BME280;7755;52.208;6.964;2023-04-25T11:47:45;101049.00;;;11.42;55.69
15308;BME280;7755;52.208;6.964;2023-04-25T11:51:48;101049.00;;;11.42;52.47
15308;BME280;7755;52.208;6.964;2023-04-25T11:55:53;101041.41;;;11.44;51.39
15308;BME280;7755;52.208;6.964;2023-04-25T12:00:05;101049.00;;;11.54;50.01
15308;BME280;7755;52.208;6.964;2023-04-25T12:04:14;101049.34;;;11.69;50.48
15308;BME280;7755;52.208;6.964;2023-04-25T12:08:18;101064.84;;;11.69;51.70
15308;BME280;7755;52.208;6.964;2023-04-25T12:12:27;101058.34;;;11.82;50.60
15308;BME280;7755;52.208;6.964;2023-04-25T12:16:29;101079.78;;;11.66;55.48
15308;BME280;7755;52.208;6.964;2023-04-25T12:20:33;101097.84;;;10.60;58.98
15308;BME280;7755;52.208;6.964;2023-04-25T12:24:36;101105.28;;;10.23;61.51
15308;BME280;7755;52.208;6.964;2023-04-25T12:28:45;101104.22;;;10.54;63.71
15308;BME280;7755;52.208;6.964;2023-04-25T12:32:48;101108.88;;;10.65;63.56
15308;BME280;7755;52.208;6.964;2023-04-25T12:36:53;101101.50;;;10.84;61.53
15308;BME280;7755;52.208;6.964;2023-04-25T12:40:56;101096.34;;;11.30;59.83
15308;BME280;7755;52.208;6.964;2023-04-25T12:45:01;101093.28;;;11.49;56.97
15308;BME280;7755;52.208;6.964;2023-04-25T12:49:04;101077.88;;;11.90;56.37
15308;BME280;7755;52.208;6.964;2023-04-25T12:53:20;101084.00;;;12.09;54.85
15308;BME280;7755;52.208;6.964;2023-04-25T12:57:23;101094.84;;;11.81;54.59
15308;BME280;7755;52.208;6.964;2023-04-25T13:01:28;101094.56;;;11.70;56.07
15308;BME280;7755;52.208;6.964;2023-04-25T13:05:32;101087.00;;;11.72;52.55
15308;BME280;7755;52.208;6.964;2023-04-25T13:09:36;101075.28;;;11.72;52.44
15308;BME280;7755;52.208;6.964;2023-04-25T13:13:40;101087.22;;;11.71;55.04
15308;BME280;7755;52.208;6.964;2023-04-25T13:17:44;101094.94;;;11.27;56.42
15308;BME280;7755;52.208;6.964;2023-04-25T13:21:47;101110.09;;;10.81;60.56
15308;BME280;7755;52.208;6.964;2023-04-25T13:25:50;101112.47;;;10.89;63.41
15308;BME280;7755;52.208;6.964;2023-04-25T13:29:55;101099.47;;;11.45;67.57
15308;BME280;7755;52.208;6.964;2023-04-25T13:33:59;101104.88;;;11.80;59.25
15308;BME280;7755;52.208;6.964;2023-04-25T13:38:02;101110.56;;;11.90;56.27
15308;BME280;7755;52.208;6.964;2023-04-25T13:42:07;101111.22;;;12.21;50.00
15308;BME280;7755;52.208;6.964;2023-04-25T13:46:11;101121.78;;;12.17;49.21
15308;BME280;7755;52.208;6.964;2023-04-25T13:50:39;101135.66;;;12.16;49.44
15308;BME280;7755;52.208;6.964;2023-04-25T13:54:41;101118.47;;;12.03;49.46
15308;BME280;7755;52.208;6.964;2023-04-25T13:58:46;101130.56;;;12.08;49.58
15308;BME280;7755;52.208;6.964;2023-04-25T14:02:49;101135.66;;;12.04;48.88
15308;BME280;7755;52.208;6.964;2023-04-25T14:06:54;101133.69;;;11.88;50.77
15308;BME280;7755;52.208;6.964;2023-04-25T14:10:57;101132.47;;;11.60;51.89
15308;BME280;7755;52.208;6.964;2023-04-25T14:15:00;101132.25;;;11.38;53.16
15308;BME280;7755;52.208;6.964;2023-04-25T14:19:03;101134.22;;;11.43;54.01
15308;BME280;7755;52.208;6.964;2023-04-25T14:23:07;101139.44;;;11.56;49.64
15308;BME280;7755;52.208;6.964;2023-04-25T14:27:10;101138.50;;;11.62;49.27
15308;BME280;7755;52.208;6.964;2023-04-25T14:31:13;101129.63;;;11.55;49.66
15308;BME280;7755;52.208;6.964;2023-04-25T14:35:17;101128.94;;;11.60;49.72
15308;BME280;7755;52.208;6.964;2023-04-25T14:39:22;101127.25;;;11.70;50.45
15308;BME280;7755;52.208;6.964;2023-04-25T14:43:25;101131.41;;;11.85;50.44
15308;BME280;7755;52.208;6.964;2023-04-25T14:47:28;101132.09;;;12.03;49.76
15308;BME280;7755;52.208;6.964;2023-04-25T14:51:31;101133.22;;;12.31;48.16
15308;BME280;7755;52.208;6.964;2023-04-25T14:55:35;101135.66;;;12.16;45.12
15308;BME280;7755;52.208;6.964;2023-04-25T14:59:38;101139.06;;;12.23;46.13
15308;BME280;7755;52.208;6.964;2023-04-25T15:03:42;101141.13;;;12.44;45.74
15308;BME280;7755;52.208;6.964;2023-04-25T15:07:45;101146.16;;;12.24;43.72
15308;BME280;7755;52.208;6.964;2023-04-25T15:11:51;101163.16;;;11.91;45.82
15308;BME280;7755;52.208;6.964;2023-04-25T15:16:01;101166.28;;;11.29;52.61
15308;BME280;7755;52.208;6.964;2023-04-25T15:20:29;101190.47;;;10.65;56.23
15308;BME280;7755;52.208;6.964;2023-04-25T15:25:02;101217.59;;;9.92;64.50
15308;BME280;7755;52.208;6.964;2023-04-25T15:29:33;101211.63;;;9.27;72.26
15308;BME280;7755;52.208;6.964;2023-04-25T15:33:45;101202.00;;;8.68;77.35
15308;BME280;7755;52.208;6.964;2023-04-25T15:37:58;101202.66;;;8.57;78.81
15308;BME280;7755;52.208;6.964;2023-04-25T15:42:02;101208.50;;;8.60;75.69
15308;BME280;7755;52.208;6.964;2023-04-25T15:46:06;101202.59;;;8.70;72.11
15308;BME280;7755;52.208;6.964;2023-04-25T15:50:10;101196.84;;;8.91;70.79
15308;BME280;7755;52.208;6.964;2023-04-25T15:54:37;101194.03;;;9.11;69.71
15308;BME280;7755;52.208;6.964;2023-04-25T15:58:50;101193.47;;;9.27;67.35
15308;BME280;7755;52.208;6.964;2023-04-25T16:02:56;101185.03;;;9.42;64.57
15308;BME280;7755;52.208;6.964;2023-04-25T16:06:59;101189.50;;;9.55;63.44
15308;BME280;7755;52.208;6.964;2023-04-25T16:11:17;101196.53;;;9.38;60.65
15308;BME280;7755;52.208;6.964;2023-04-25T16:15:32;101195.38;;;9.52;61.20
15308;BME280;7755;52.208;6.964;2023-04-25T16:19:39;101194.69;;;9.81;59.10
15308;BME280;7755;52.208;6.964;2023-04-25T16:23:42;101200.13;;;9.81;55.93
15308;BME280;7755;52.208;6.964;2023-04-25T16:27:45;101202.97;;;9.68;57.00
15308;BME280;7755;52.208;6.964;2023-04-25T16:31:48;101198.34;;;9.50;58.84
15308;BME280;7755;52.208;6.964;2023-04-25T16:35:53;101202.31;;;9.48;59.60
15308;BME280;7755;52.208;6.964;2023-04-25T16:39:57;101205.19;;;9.53;59.77
15308;BME280;7755;52.208;6.964;2023-04-25T16:44:00;101215.75;;;9.61;60.43
15308;BME280;7755;52.208;6.964;2023-04-25T16:48:03;101209.50;;;9.61;57.62
15308;BME280;7755;52.208;6.964;2023-04-25T16:52:08;101229.78;;;9.58;59.75
15308;BME280;7755;52.208;6.964;2023-04-25T16:56:11;101231.91;;;9.56;61.81
15308;BME280;7755;52.208;6.964;2023-04-25T17:00:15;101222.06;;;9.30;58.09
15308;BME280;7755;52.208;6.964;2023-04-25T17:04:19;101227.31;;;9.25;59.47
15308;BME280;7755;52.208;6.964;2023-04-25T17:08:23;101238.34;;;9.30;59.71
15308;BME280;7755;52.208;6.964;2023-04-25T17:12:26;101233.38;;;9.20;56.84
15308;BME280;7755;52.208;6.964;2023-04-25T17:16:34;101234.94;;;9.10;57.66
15308;BME280;7755;52.208;6.964;2023-04-25T17:20:37;101237.41;;;9.11;58.01
15308;BME280;7755;52.208;6.964;2023-04-25T17:24:42;101245.47;;;9.24;58.82
15308;BME280;7755;52.208;6.964;2023-04-25T17:28:45;101249.66;;;9.20;58.88
15308;BME280;7755;52.208;6.964;2023-04-25T17:32:50;101266.50;;;8.97;61.66
15308;BME280;7755;52.208;6.964;2023-04-25T17:36:53;101267.94;;;8.55;67.08
15308;BME280;7755;52.208;6.964;2023-04-25T17:41:13;101272.53;;;8.35;69.83
15308;BME280;7755;52.208;6.964;2023-04-25T17:45:16;101271.28;;;8.31;70.34
15308;BME280;7755;52.208;6.964;2023-04-25T17:49:20;101272.75;;;8.27;70.30
15308;BME280;7755;52.208;6.964;2023-04-25T17:53:24;101276.50;;;8.19;69.88
15308;BME280;7755;52.208;6.964;2023-04-25T17:57:28;101290.91;;;8.13;69.89
15308;BME280;7755;52.208;6.964;2023-04-25T18:01:32;101285.28;;;8.08;70.17
15308;BME280;7755;52.208;6.964;2023-04-25T18:05:36;101295.69;;;7.98;70.43
15308;BME280;7755;52.208;6.964;2023-04-25T18:09:39;101305.28;;;7.93;71.48
15308;BME280;7755;52.208;6.964;2023-04-25T18:13:43;101304.03;;;8.03;71.88
15308;BME280;7755;52.208;6.964;2023-04-25T18:17:47;101312.16;;;8.09;72.24
15308;BME280;7755;52.208;6.964;2023-04-25T18:21:51;101319.84;;;8.06;72.09
15308;BME280;7755;52.208;6.964;2023-04-25T18:25:55;101314.44;;;8.06;73.11
15308;BME280;7755;52.208;6.964;2023-04-25T18:29:59;101326.31;;;8.11;72.58
15308;BME280;7755;52.208;6.964;2023-04-25T18:34:02;101325.25;;;8.06;72.68
15308;BME280;7755;52.208;6.964;2023-04-25T18:38:07;101327.78;;;8.14;72.96
15308;BME280;7755;52.208;6.964;2023-04-25T18:42:19;101330.28;;;8.09;72.36
15308;BME280;7755;52.208;6.964;2023-04-25T18:46:24;101313.41;;;8.07;72.47
15308;BME280;7755;52.208;6.964;2023-04-25T18:50:27;101330.50;;;8.07;72.68
15308;BME280;7755;52.208;6.964;2023-04-25T18:54:30;101343.38;;;8.05;71.73
15308;BME280;7755;52.208;6.964;2023-04-25T18:58:34;101338.63;;;8.07;72.59
15308;BME280;7755;52.208;6.964;2023-04-25T19:02:39;101339.66;;;8.06;71.94
15308;BME280;7755;52.208;6.964;2023-04-25T19:06:44;101352.97;;;8.01;72.51
15308;BME280;7755;52.208;6.964;2023-04-25T19:10:47;101355.47;;;7.96;72.28
15308;BME280;7755;52.208;6.964;2023-04-25T19:14:50;101362.31;;;7.85;71.66
15308;BME280;7755;52.208;6.964;2023-04-25T19:18:57;101362.97;;;7.87;72.56
15308;BME280;7755;52.208;6.964;2023-04-25T19:23:03;101367.34;;;7.82;73.27
15308;BME280;7755;52.208;6.964;2023-04-25T19:27:07;101368.59;;;7.79;74.46
15308;BME280;7755;52.208;6.964;2023-04-25T19:31:10;101360.03;;;7.69;74.27
15308;BME280;7755;52.208;6.964;2023-04-25T19:35:16;101371.69;;;7.70;75.08
15308;BME280;7755;52.208;6.964;2023-04-25T19:39:20;101365.63;;;7.61;75.58
15308;BME280;7755;52.208;6.964;2023-04-25T19:43:23;101368.50;;;7.46;76.84
15308;BME280;7755;52.208;6.964;2023-04-25T19:47:26;101370.38;;;7.39;77.60
15308;BME280;7755;52.208;6.964;2023-04-25T19:51:32;101372.84;;;7.34;78.46
15308;BME280;7755;52.208;6.964;2023-04-25T19:55:36;101375.34;;;7.35;78.39
15308;BME280;7755;52.208;6.964;2023-04-25T19:59:40;101367.44;;;7.41;77.70
15308;BME280;7755;52.208;6.964;2023-04-25T20:03:48;101369.31;;;7.33;78.86
15308;BME280;7755;52.208;6.964;2023-04-25T20:07:55;101380.72;;;7.29;79.60
15308;BME280;7755;52.208;6.964;2023-04-25T20:11:58;101391.50;;;7.22;80.14
15308;BME280;7755;52.208;6.964;2023-04-25T20:16:03;101388.56;;;7.17;80.87
15308;BME280;7755;52.208;6.964;2023-04-25T20:20:18;101391.47;;;7.16;81.59
15308;BME280;7755;52.208;6.964;2023-04-25T20:24:25;101397.94;;;7.15;81.67
15308;BME280;7755;52.208;6.964;2023-04-25T20:28:29;101396.88;;;7.16;81.95
15308;BME280;7755;52.208;6.964;2023-04-25T20:32:33;101401.88;;;7.12;82.33
15308;BME280;7755;52.208;6.964;2023-04-25T20:36:36;101392.91;;;7.05;82.36
15308;BME280;7755;52.208;6.964;2023-04-25T20:40:48;101406.41;;;7.05;82.51
15308;BME280;7755;52.208;6.964;2023-04-25T20:45:07;101390.34;;;6.97;82.58
15308;BME280;7755;52.208;6.964;2023-04-25T20:49:31;101391.34;;;6.89;83.21
15308;BME280;7755;52.208;6.964;2023-04-25T20:53:59;101390.88;;;6.79;83.36
15308;BME280;7755;52.208;6.964;2023-04-25T21:03:16;101393.44;;;6.59;85.07
15308;BME280;7755;52.208;6.964;2023-04-25T21:07:25;101385.50;;;6.51;85.54
15308;BME280;7755;52.208;6.964;2023-04-25T21:11:30;101398.91;;;6.38;85.98
15308;BME280;7755;52.208;6.964;2023-04-25T21:15:34;101398.66;;;6.33;86.93
15308;BME280;7755;52.208;6.964;2023-04-25T21:19:38;101402.59;;;6.30;86.58
15308;BME280;7755;52.208;6.964;2023-04-25T21:23:42;101407.72;;;6.25;87.19
15308;BME280;7755;52.208;6.964;2023-04-25T21:27:46;101403.09;;;6.19;87.16
15308;BME280;7755;52.208;6.964;2023-04-25T21:31:50;101415.50;;;6.13;87.85
15308;BME280;7755;52.208;6.964;2023-04-25T21:35:55;101419.03;;;6.14;88.10
15308;BME280;7755;52.208;6.964;2023-04-25T21:39:57;101416.09;;;6.09;88.80
15308;BME280;7755;52.208;6.964;2023-04-25T21:44:00;101415.66;;;6.05;89.26
15308;BME280;7755;52.208;6.964;2023-04-25T21:48:03;101410.56;;;5.95;89.93
15308;BME280;7755;52.208;6.964;2023-04-25T21:52:07;101420.53;;;5.95;90.66
15308;BME280;7755;52.208;6.964;2023-04-25T21:56:11;101416.34;;;5.92;91.12
15308;BME280;7755;52.208;6.964;2023-04-25T22:00:14;101418.56;;;5.89;91.43
15308;BME280;7755;52.208;6.964;2023-04-25T22:04:25;101421.56;;;5.94;91.11